Time;durP1;ratioP1;P1;durP2;ratioP2;P2;SDS_P1;SDS_P2;PMS_P1;PMS_P2;Temp;Humidity;BMP_temperature;BMP_pressure;BME280_temperature;BME280_humidity;BME280_pressure;Samples;Min_cycle;Max_cycle;Signal;HPM_P1;HPM_P2
2022/12/29 00:01:09;;;;;;;9.82;5.45;;;9.80;99.90;;;;;;6215649;23;20055;-83
2022/12/29 00:03:34;;;;;;;11.07;5.25;;;10.90;99.90;;;;;;6188974;23;20437;-83
2022/12/29 00:06:00;;;;;;;10.15;5.03;;;10.90;99.90;;;;;;6215921;23;20330;-84
2022/12/29 00:08:41;;;;;;;10.30;5.07;;;9.80;99.90;;;;;;6215130;23;20021;-84
2022/12/29 00:11:11;;;;;;;10.05;5.18;;;11.30;99.90;;;;;;6214500;23;20008;-83
2022/12/29 00:16:20;;;;;;;;;;;11.10;99.90;;;;;;6216123;23;20021;-83
2022/12/29 00:18:46;;;;;;;10.32;5.32;;;11.30;99.90;;;;;;6187581;23;20291;-83
2022/12/29 00:35:38;;;;;;;10.80;4.72;;;11.30;99.90;;;;;;6215370;23;20024;-83
2022/12/29 00:46:18;;;;;;;9.45;4.80;;;10.00;99.90;;;;;;6187061;23;19923;-83
2022/12/29 00:51:28;;;;;;;9.38;4.32;;;10.10;99.90;;;;;;6188193;23;20020;-83
2022/12/29 00:53:54;;;;;;;9.40;4.68;;;10.10;99.90;;;;;;6223265;23;20012;-83
2022/12/29 00:56:19;;;;;;;9.13;4.50;;;10.10;99.90;;;;;;6195124;23;20319;-83
2022/12/29 00:58:45;;;;;;;9.60;5.05;;;11.30;99.90;;;;;;6188522;23;20120;-83
2022/12/29 01:01:11;;;;;;;9.20;4.35;;;10.40;99.90;;;;;;6187635;23;20024;-83
2022/12/29 01:03:37;;;;;;;9.80;4.70;;;11.20;99.90;;;;;;6189585;23;20016;-83
2022/12/29 01:06:05;;;;;;;8.77;3.90;;;10.60;99.90;;;;;;6188640;23;20106;-83
2022/12/29 01:08:31;;;;;;;9.35;4.30;;;10.00;99.90;;;;;;6213565;23;20013;-83
2022/12/29 01:11:12;;;;;;;8.82;4.10;;;10.70;99.90;;;;;;6188504;23;20040;-84
2022/12/29 01:13:40;;;;;;;8.45;4.10;;;11.20;99.90;;;;;;6214453;23;20012;-83
2022/12/29 01:16:20;;;;;;;8.32;3.70;;;10.10;99.90;;;;;;6215476;23;20066;-83
2022/12/29 01:18:46;;;;;;;11.02;4.07;;;11.70;99.90;;;;;;6188060;23;20013;-83
2022/12/29 01:21:12;;;;;;;8.70;3.72;;;11.90;99.90;;;;;;6186714;23;20024;-82
2022/12/29 01:23:53;;;;;;;9.30;3.90;;;11.70;99.90;;;;;;6188473;23;20046;-83
2022/12/29 01:26:19;;;;;;;9.05;3.13;;;11.80;99.90;;;;;;6187899;23;20483;-83
2022/12/29 01:28:48;;;;;;;7.50;3.45;;;11.80;99.90;;;;;;6187889;23;20016;-83
2022/12/29 01:31:21;;;;;;;8.90;3.70;;;12.00;99.90;;;;;;6215294;23;20023;-83
2022/12/29 01:33:46;;;;;;;8.70;3.70;;;10.90;99.90;;;;;;6187532;23;20024;-83
2022/12/29 01:36:17;;;;;;;8.93;3.60;;;12.20;99.90;;;;;;6186746;23;20009;-83
2022/12/29 01:38:43;;;;;;;10.98;3.70;;;10.40;99.90;;;;;;6209131;23;20058;-83
2022/12/29 01:41:14;;;;;;;8.45;3.60;;;11.10;99.90;;;;;;6214591;23;20441;-84
2022/12/29 01:43:52;;;;;;;8.68;3.50;;;10.50;99.90;;;;;;6187568;23;20092;-83
2022/12/29 01:46:29;;;;;;;8.45;3.72;;;10.50;99.90;;;;;;6214636;23;20051;-83
2022/12/29 01:49:21;;;;;;;8.73;3.50;;;10.40;99.90;;;;;;6187077;23;20038;-84
2022/12/29 01:51:58;;;;;;;8.20;3.53;;;10.50;99.90;;;;;;6205145;23;20013;-83
2022/12/29 01:54:29;;;;;;;9.15;3.45;;;10.50;99.90;;;;;;6207231;23;20123;-83
2022/12/29 01:56:58;;;;;;;8.27;3.30;;;11.70;99.90;;;;;;6187186;23;20062;-83
2022/12/29 01:59:28;;;;;;;8.30;3.30;;;11.00;99.90;;;;;;6187851;23;20020;-83
2022/12/29 02:01:54;;;;;;;8.75;3.42;;;10.40;99.90;;;;;;6187901;23;20016;-83
2022/12/29 02:04:23;;;;;;;9.45;3.25;;;10.40;99.90;;;;;;6186146;23;20023;-83
2022/12/29 02:07:04;;;;;;;8.88;3.33;;;10.50;99.90;;;;;;6214804;23;20437;-83
2022/12/29 02:09:30;;;;;;;8.50;3.33;;;10.50;99.90;;;;;;6214798;23;20024;-83
2022/12/29 02:12:11;;;;;;;9.07;3.53;;;11.30;99.90;;;;;;6214107;23;20008;-83
2022/12/29 02:14:36;;;;;;;8.73;3.40;;;10.40;99.90;;;;;;6215240;23;20020;-83
2022/12/29 02:17:49;;;;;;;7.80;3.40;;;10.40;99.90;;;;;;6188998;23;20013;-83
2022/12/29 02:21:19;;;;;;;7.97;3.20;;;10.30;99.90;;;;;;6189489;23;20017;-83
2022/12/29 02:23:59;;;;;;;9.53;3.47;;;9.70;99.90;;;;;;6099551;23;20022;-83
2022/12/29 02:26:38;;;;;;;8.00;3.20;;;10.30;99.90;;;;;;6189393;23;20013;-83
2022/12/29 02:29:39;;;;;;;7.00;2.90;;;10.30;99.90;;;;;;6216207;23;20074;-82
2022/12/29 02:32:35;;;;;;;8.55;3.17;;;10.40;99.90;;;;;;6215990;23;20121;-83
2022/12/29 02:35:23;;;;;;;8.10;2.77;;;10.40;99.90;;;;;;6216223;23;20349;-83
2022/12/29 02:38:02;;;;;;;7.15;2.90;;;10.40;99.90;;;;;;6189203;23;20044;-83
2022/12/29 02:44:24;;;;;;;11.40;2.90;;;10.40;99.90;;;;;;6186386;23;20020;-83
2022/12/29 02:47:16;;;;;;;8.90;3.00;;;10.30;99.90;;;;;;6158533;23;20100;-83
2022/12/29 02:50:05;;;;;;;9.13;2.90;;;11.80;99.90;;;;;;6159505;23;20017;-83
2022/12/29 02:52:54;;;;;;;7.65;2.83;;;10.20;99.90;;;;;;6184576;23;20029;-83
2022/12/29 02:55:20;;;;;;;9.68;3.10;;;11.60;99.90;;;;;;6159638;23;20103;-83
2022/12/29 02:57:45;;;;;;;7.35;2.70;;;11.70;99.90;;;;;;6159101;23;20057;-83
2022/12/29 03:00:18;;;;;;;8.93;3.28;;;10.00;99.90;;;;;;6159145;23;20017;-83
2022/12/29 03:03:21;;;;;;;8.75;3.03;;;11.60;99.90;;;;;;6159311;23;20084;-84
2022/12/29 03:06:26;;;;;;;7.88;3.33;;;9.90;99.90;;;;;;6187283;23;20228;-84
2022/12/29 03:09:20;;;;;;;7.95;2.95;;;9.80;99.90;;;;;;6185952;23;20076;-84
2022/12/29 03:12:18;;;;;;;8.32;3.58;;;9.70;99.90;;;;;;6182295;23;20017;-84
2022/12/29 03:18:24;;;;;;;9.40;3.40;;;9.60;99.90;;;;;;6159803;23;20457;-84
2022/12/29 03:21:09;;;;;;;8.25;3.65;;;9.70;99.90;;;;;;6158931;23;20350;-84
2022/12/29 03:23:53;;;;;;;8.30;3.43;;;11.30;99.90;;;;;;6159458;23;20017;-84
2022/12/29 03:26:37;;;;;;;8.07;2.95;;;11.50;99.90;;;;;;6159152;23;20438;-84
2022/12/29 03:29:18;;;;;;;7.90;2.80;;;11.30;99.90;;;;;;6158717;23;20028;-84
2022/12/29 03:32:02;;;;;;;8.87;3.00;;;11.40;99.90;;;;;;6159682;23;20013;-84
2022/12/29 03:34:28;;;;;;;8.02;3.00;;;11.40;99.90;;;;;;6185283;23;20021;-84
2022/12/29 03:37:04;;;;;;;8.80;2.95;;;9.80;99.90;;;;;;6159731;23;20021;-84
2022/12/29 03:39:42;;;;;;;9.55;3.08;;;10.50;99.90;;;;;;6185330;23;20459;-84
2022/12/29 03:42:27;;;;;;;7.70;2.92;;;10.00;99.90;;;;;;6158769;23;20020;-84
2022/12/29 03:44:56;;;;;;;8.00;2.87;;;9.90;99.90;;;;;;6159559;23;20051;-84
2022/12/29 03:47:22;;;;;;;7.60;2.90;;;10.00;99.90;;;;;;6186012;23;20013;-85
2022/12/29 03:49:49;;;;;;;7.70;2.90;;;10.00;99.90;;;;;;6157739;23;20021;-84
2022/12/29 03:52:15;;;;;;;7.50;2.97;;;10.00;99.90;;;;;;6185414;23;20028;-84
2022/12/29 03:54:41;;;;;;;7.15;2.80;;;9.90;99.90;;;;;;6185714;23;20445;-84
2022/12/29 03:57:06;;;;;;;8.02;2.70;;;11.20;99.90;;;;;;6185460;23;20135;-84
2022/12/29 03:59:32;;;;;;;7.97;2.90;;;9.90;99.90;;;;;;6157939;23;20017;-83
2022/12/29 04:02:49;;;;;;;8.25;2.70;;;9.90;99.90;;;;;;6158916;23;20029;-84
2022/12/29 04:05:40;;;;;;;7.57;2.30;;;10.00;99.90;;;;;;6158873;23;20087;-84
2022/12/29 04:08:06;;;;;;;9.60;2.70;;;10.00;99.90;;;;;;6185758;23;20024;-84
2022/12/29 04:10:32;;;;;;;7.95;2.70;;;10.00;99.90;;;;;;6157936;23;20017;-83
2022/12/29 04:12:59;;;;;;;8.23;2.25;;;10.60;99.90;;;;;;6156545;23;20017;-84
2022/12/29 04:15:26;;;;;;;8.15;2.10;;;10.10;99.90;;;;;;6185772;23;20017;-83
2022/12/29 04:18:03;;;;;;;7.75;2.08;;;10.30;99.90;;;;;;6185015;23;20019;-84
2022/12/29 04:23:16;;;;;;;5.68;1.90;;;11.00;99.90;;;;;;6184718;23;20057;-84
2022/12/29 04:25:58;;;;;;;7.72;1.90;;;11.30;99.90;;;;;;6159006;23;20024;-84
2022/12/29 04:28:33;;;;;;;7.05;1.90;;;11.60;99.90;;;;;;6184868;23;20453;-83
2022/12/29 04:30:59;;;;;;;5.80;2.03;;;11.70;99.90;;;;;;6184899;23;20017;-83
2022/12/29 04:33:43;;;;;;;5.80;1.70;;;11.40;99.90;;;;;;6158626;23;20437;-83
2022/12/29 04:36:24;;;;;;;5.10;1.90;;;11.70;99.90;;;;;;6158908;23;20020;-83
2022/12/29 04:39:00;;;;;;;6.70;1.80;;;10.70;99.90;;;;;;6184454;23;20024;-83
2022/12/29 04:41:47;;;;;;;5.63;1.70;;;9.40;99.90;;;;;;6138704;23;20017;-84
2022/12/29 04:44:27;;;;;;;8.40;1.75;;;11.60;99.90;;;;;;6159346;23;20028;-83
2022/12/29 04:47:09;;;;;;;6.35;1.92;;;11.70;99.90;;;;;;6186433;23;20112;-83
2022/12/29 04:49:53;;;;;;;7.03;2.00;;;10.10;99.90;;;;;;6185534;23;20020;-84
2022/12/29 04:52:34;;;;;;;7.40;1.92;;;10.20;99.90;;;;;;6160762;23;20009;-84
2022/12/29 04:55:00;;;;;;;5.85;1.85;;;11.00;99.90;;;;;;6186056;23;20017;-83
2022/12/29 04:57:26;;;;;;;6.30;1.85;;;10.10;99.90;;;;;;6188458;23;20009;-83
2022/12/29 04:59:52;;;;;;;7.03;1.90;;;10.10;99.90;;;;;;6188762;23;20016;-84
2022/12/29 05:02:18;;;;;;;4.53;1.70;;;10.60;99.90;;;;;;6158434;23;20063;-83
2022/12/29 05:04:59;;;;;;;5.65;2.00;;;11.60;99.90;;;;;;6159110;23;20017;-84
2022/12/29 05:07:43;;;;;;;6.15;1.90;;;9.80;99.90;;;;;;6184357;23;20330;-83
2022/12/29 05:10:21;;;;;;;;;;;9.70;99.90;;;;;;6159030;23;20020;-84
2022/12/29 05:12:46;;;;;;;7.03;2.10;;;9.80;99.90;;;;;;6183597;23;20327;-83
2022/12/29 05:15:30;;;;;;;7.75;2.00;;;9.90;99.90;;;;;;6157926;23;20106;-83
2022/12/29 05:18:10;;;;;;;7.72;1.90;;;10.00;99.90;;;;;;6158366;23;20040;-83
2022/12/29 05:20:36;;;;;;;6.60;2.20;;;9.90;99.90;;;;;;6157834;23;20017;-83
2022/12/29 05:23:01;;;;;;;6.93;2.17;;;10.80;99.90;;;;;;6160155;23;20020;-83
2022/12/29 05:25:30;;;;;;;5.63;2.10;;;9.90;99.90;;;;;;6187906;23;20067;-83
2022/12/29 05:28:32;;;;;;;8.15;2.20;;;9.90;99.90;;;;;;6183768;23;20448;-83
2022/12/29 05:30:58;;;;;;;;;;;10.20;99.90;;;;;;6185548;23;20418;-83
2022/12/29 05:34:04;;;;;;;6.03;1.98;;;10.00;99.90;;;;;;6158029;23;19919;-83
2022/12/29 05:36:30;;;;;;;9.73;2.40;;;10.00;99.90;;;;;;6155705;23;20341;-83
2022/12/29 05:39:13;;;;;;;7.50;2.25;;;11.40;99.90;;;;;;6158627;23;20088;-83
2022/12/29 05:41:39;;;;;;;5.50;2.10;;;10.00;99.90;;;;;;6184373;23;20397;-82
2022/12/29 05:44:05;;;;;;;4.93;2.00;;;11.20;99.90;;;;;;6158199;23;20024;-83
2022/12/29 05:46:46;;;;;;;6.60;1.92;;;9.90;99.90;;;;;;6158121;23;20475;-82
2022/12/29 05:49:12;;;;;;;6.57;2.03;;;11.10;99.90;;;;;;6157330;23;20021;-83
2022/12/29 05:51:37;;;;;;;9.33;2.17;;;10.00;99.90;;;;;;6178603;23;20072;-83
2022/12/29 05:54:03;;;;;;;7.20;1.97;;;9.90;99.90;;;;;;6158118;23;20024;-83
2022/12/29 05:56:29;;;;;;;5.32;1.80;;;9.80;99.90;;;;;;6183891;23;20025;-83
2022/12/29 05:58:54;;;;;;;7.22;2.30;;;10.90;99.90;;;;;;6158522;23;20395;-82
2022/12/29 06:01:20;;;;;;;6.03;2.00;;;9.80;99.90;;;;;;6158014;23;20091;-83
2022/12/29 06:03:46;;;;;;;9.10;2.10;;;9.90;99.90;;;;;;6184102;23;20027;-83
2022/12/29 06:06:11;;;;;;;7.15;2.17;;;9.90;99.90;;;;;;6183573;23;20104;-83
2022/12/29 06:08:46;;;;;;;7.93;2.10;;;9.70;99.90;;;;;;6158323;23;20069;-83
2022/12/29 06:11:12;;;;;;;6.15;1.85;;;9.90;99.90;;;;;;6184599;23;20016;-83
2022/12/29 06:13:38;;;;;;;6.68;2.13;;;11.50;99.90;;;;;;6157953;23;20024;-83
2022/12/29 06:16:04;;;;;;;6.32;2.00;;;11.20;99.90;;;;;;6184222;23;20021;-83
2022/12/29 06:18:30;;;;;;;6.15;1.65;;;9.90;99.90;;;;;;6158233;23;20013;-83
2022/12/29 06:21:00;;;;;;;8.50;2.00;;;11.30;99.90;;;;;;6184770;23;20016;-83
2022/12/29 06:23:26;;;;;;;9.73;1.80;;;10.00;99.90;;;;;;6183807;23;20020;-83
2022/12/29 06:25:52;;;;;;;5.78;1.60;;;10.20;99.90;;;;;;6159292;23;20036;-83
2022/12/29 06:28:18;;;;;;;6.80;1.70;;;9.90;99.90;;;;;;6185209;23;20017;-82
2022/12/29 06:31:10;;;;;;;9.30;1.95;;;11.50;99.90;;;;;;6157302;23;20108;-83
2022/12/29 06:33:36;;;;;;;7.45;1.90;;;9.80;99.90;;;;;;6185251;23;20028;-83
2022/12/29 06:36:01;;;;;;;7.13;2.10;;;11.10;99.90;;;;;;6192510;23;20017;-82
2022/12/29 06:38:29;;;;;;;9.32;1.90;;;9.90;99.90;;;;;;6157623;23;20025;-83
2022/12/29 06:41:04;;;;;;;7.53;1.90;;;11.00;99.90;;;;;;6185006;23;20013;-83
2022/12/29 06:43:32;;;;;;;12.07;2.00;;;11.40;99.90;;;;;;6183869;23;20319;-83
2022/12/29 06:45:57;;;;;;;6.63;1.88;;;9.80;99.90;;;;;;6157849;23;20017;-83
2022/12/29 06:48:35;;;;;;;6.90;1.93;;;9.10;99.90;;;;;;6184548;23;20078;-83
2022/12/29 06:51:01;;;;;;;10.23;2.15;;;11.40;99.90;;;;;;6157197;23;20048;-83
2022/12/29 06:53:26;;;;;;;9.75;2.28;;;9.80;99.90;;;;;;6157930;23;20036;-83
2022/12/29 06:56:01;;;;;;;10.55;2.30;;;11.20;99.90;;;;;;6157885;23;20013;-83
2022/12/29 06:58:27;;;;;;;12.98;2.20;;;11.30;99.90;;;;;;6156843;23;20095;-83
2022/12/29 07:00:59;;;;;;;10.77;2.00;;;11.00;99.90;;;;;;6158274;23;20045;-82
2022/12/29 07:03:25;;;;;;;9.45;1.75;;;10.90;99.90;;;;;;6159668;23;20090;-83
2022/12/29 07:05:54;;;;;;;10.90;3.80;;;9.70;99.90;;;;;;6185269;23;20020;-83
2022/12/29 07:08:20;;;;;;;20.35;8.10;;;9.80;99.90;;;;;;6160502;23;20017;-82
2022/12/29 07:10:46;;;;;;;13.18;2.60;;;9.70;99.90;;;;;;6166355;23;20049;-82
2022/12/29 07:13:11;;;;;;;15.80;6.15;;;9.70;99.90;;;;;;6158683;23;20021;-82
2022/12/29 07:15:37;;;;;;;17.05;6.07;;;10.90;99.90;;;;;;6186442;23;20017;-81
2022/12/29 07:18:04;;;;;;;19.97;5.73;;;9.60;99.90;;;;;;6159843;23;20075;-81
2022/12/29 07:20:30;;;;;;;16.65;5.53;;;9.70;99.90;;;;;;6158274;23;20021;-82
2022/12/29 07:22:55;;;;;;;14.57;5.07;;;9.90;99.90;;;;;;6159367;23;20017;-81
2022/12/29 07:25:22;;;;;;;14.00;3.10;;;9.60;99.90;;;;;;6182776;23;20013;-81
2022/12/29 07:27:48;;;;;;;14.23;6.50;;;9.60;99.90;;;;;;6158175;23;20023;-81
2022/12/29 07:30:14;;;;;;;10.07;2.33;;;9.60;99.90;;;;;;6185690;23;20083;-82
2022/12/29 07:32:40;;;;;;;13.27;3.72;;;9.50;99.90;;;;;;6158388;23;20017;-82
2022/12/29 07:35:06;;;;;;;20.33;7.97;;;9.50;99.90;;;;;;6185016;23;20013;-83
2022/12/29 07:37:32;;;;;;;12.73;4.25;;;9.50;99.90;;;;;;6159640;23;20017;-82
2022/12/29 07:39:58;;;;;;;14.02;3.42;;;10.50;99.90;;;;;;6186123;23;20024;-81
2022/12/29 07:42:23;;;;;;;11.15;2.17;;;9.50;99.90;;;;;;6159091;23;20028;-81
2022/12/29 07:44:49;;;;;;;10.97;2.10;;;10.60;99.90;;;;;;6186252;23;20017;-81
2022/12/29 07:47:15;;;;;;;12.03;2.47;;;9.50;99.90;;;;;;6158573;23;20021;-81
2022/12/29 07:49:40;;;;;;;13.80;2.40;;;10.30;99.90;;;;;;6159726;23;20369;-80
2022/12/29 07:52:06;;;;;;;13.00;2.63;;;9.60;99.90;;;;;;6159794;23;20017;-81
2022/12/29 07:54:31;;;;;;;10.23;2.53;;;9.50;99.90;;;;;;6158578;23;20017;-81
2022/12/29 07:56:59;;;;;;;10.13;2.58;;;9.50;99.90;;;;;;6159648;23;20107;-81
2022/12/29 07:59:25;;;;;;;10.88;2.40;;;9.50;99.90;;;;;;6159040;23;20528;-81
2022/12/29 08:01:51;;;;;;;14.37;2.63;;;9.50;99.90;;;;;;6185348;23;20080;-81
2022/12/29 08:04:16;;;;;;;8.23;2.07;;;10.20;99.90;;;;;;6159127;23;20060;-81
2022/12/29 08:06:42;;;;;;;10.40;2.27;;;9.50;99.90;;;;;;6186115;23;20040;-81
2022/12/29 08:09:08;;;;;;;9.93;2.33;;;9.50;99.90;;;;;;6158721;23;20021;-81
2022/12/29 08:11:34;;;;;;;10.50;2.17;;;9.50;99.90;;;;;;6159499;23;20009;-81
2022/12/29 08:13:59;;;;;;;9.00;2.30;;;9.50;99.90;;;;;;6159095;23;20087;-81
2022/12/29 08:16:25;;;;;;;9.10;2.20;;;9.40;99.90;;;;;;6158263;23;20021;-85
2022/12/29 08:18:51;;;;;;;8.97;2.40;;;11.00;99.90;;;;;;6186159;23;20009;-81
2022/12/29 08:21:16;;;;;;;11.27;2.43;;;10.50;99.90;;;;;;6159245;23;20013;-80
2022/12/29 08:23:42;;;;;;;11.10;2.58;;;9.40;99.90;;;;;;6185448;23;20017;-81
2022/12/29 08:26:19;;;;;;;9.93;2.50;;;9.50;99.90;;;;;;6159402;23;20389;-80
2022/12/29 08:28:45;;;;;;;9.95;2.20;;;9.40;99.90;;;;;;6158868;23;20048;-80
2022/12/29 08:31:23;;;;;;;8.63;2.40;;;10.60;99.90;;;;;;6157745;23;20013;-80
2022/12/29 08:33:49;;;;;;;10.02;2.60;;;11.10;99.90;;;;;;6159074;23;20013;-80
2022/12/29 08:36:14;;;;;;;11.88;2.55;;;9.40;99.90;;;;;;6185617;23;20111;-81
2022/12/29 08:38:40;;;;;;;9.53;2.50;;;9.40;99.90;;;;;;6152522;23;20021;-80
2022/12/29 08:41:09;;;;;;;9.97;2.20;;;9.40;99.90;;;;;;6182364;23;20021;-84
2022/12/29 08:43:34;;;;;;;11.48;2.58;;;10.40;99.90;;;;;;6180726;23;20024;-84
2022/12/29 08:46:00;;;;;;;8.60;2.03;;;9.40;99.90;;;;;;6155471;23;20013;-83
2022/12/29 08:48:29;;;;;;;7.93;2.13;;;9.40;99.90;;;;;;6158012;23;20319;-83
2022/12/29 08:51:30;;;;;;;8.85;2.58;;;9.40;99.90;;;;;;6182783;23;20028;-84
2022/12/29 08:54:14;;;;;;;8.80;2.20;;;8.50;99.90;;;;;;6158752;23;20072;-83
2022/12/29 08:57:01;;;;;;;9.57;2.25;;;8.30;99.90;;;;;;6158991;23;20457;-84
2022/12/29 08:59:39;;;;;;;13.20;2.35;;;9.60;99.90;;;;;;6157302;23;20013;-83
2022/12/29 09:02:05;;;;;;;11.30;2.17;;;10.80;99.90;;;;;;6158703;23;20099;-83
2022/12/29 09:04:37;;;;;;;10.67;2.30;;;10.60;99.90;;;;;;6183840;23;20442;-82
2022/12/29 09:07:05;;;;;;;10.40;2.92;;;9.60;99.90;;;;;;6185049;23;20013;-82
2022/12/29 09:09:49;;;;;;;8.53;2.23;;;9.90;99.90;;;;;;6185263;23;20386;-83
2022/12/29 09:12:36;;;;;;;8.43;1.98;;;10.40;99.90;;;;;;6157178;23;20017;-83
2022/12/29 09:15:09;;;;;;;9.20;2.37;;;9.30;99.90;;;;;;6158362;23;20350;-83
2022/12/29 09:20:20;;;;;;;11.35;2.45;;;9.40;99.90;;;;;;6184861;23;20104;-83
2022/12/29 09:22:49;;;;;;;9.65;2.30;;;11.00;99.90;;;;;;6184968;23;20055;-83
2022/12/29 09:25:30;;;;;;;8.75;1.95;;;10.00;99.90;;;;;;6158004;23;20017;-83
2022/12/29 09:28:11;;;;;;;11.38;2.17;;;9.60;99.90;;;;;;6184678;23;20017;-83
2022/12/29 09:30:49;;;;;;;10.20;1.93;;;9.40;99.90;;;;;;6185715;23;20088;-83
2022/12/29 09:33:21;;;;;;;12.97;2.60;;;8.70;99.90;;;;;;6184360;23;20017;-84
2022/12/29 09:36:02;;;;;;;11.70;2.47;;;9.20;99.90;;;;;;6180503;23;20021;-83
2022/12/29 09:38:43;;;;;;;9.40;2.93;;;9.20;99.90;;;;;;6185291;23;20099;-83
2022/12/29 09:41:42;;;;;;;11.98;2.40;;;10.70;99.90;;;;;;6157495;23;20017;-83
2022/12/29 09:44:58;;;;;;;11.97;2.50;;;9.10;99.90;;;;;;6158063;23;20024;-83
2022/12/29 09:47:43;;;;;;;11.95;2.58;;;8.90;99.90;;;;;;6156721;23;20092;-83
2022/12/29 09:50:35;;;;;;;10.00;2.30;;;8.60;99.90;;;;;;6158140;23;20017;-81
2022/12/29 09:56:01;;;;;;;9.93;2.80;;;9.10;99.90;;;;;;6184058;23;20021;-82
2022/12/29 09:58:39;;;;;;;12.98;2.70;;;9.10;99.90;;;;;;6157651;23;20013;-82
2022/12/29 10:01:25;;;;;;;11.77;2.40;;;10.40;99.90;;;;;;6184422;23;20021;-83
2022/12/29 10:03:54;;;;;;;12.73;2.88;;;9.30;99.90;;;;;;6185106;23;20021;-82
2022/12/29 10:06:54;;;;;;;11.23;2.50;;;10.40;99.90;;;;;;6158179;23;20017;-83
2022/12/29 10:09:35;;;;;;;9.47;2.40;;;9.30;99.90;;;;;;6157208;23;20052;-83
2022/12/29 10:12:31;;;;;;;9.75;2.58;;;9.30;99.90;;;;;;6158722;23;20104;-83
2022/12/29 10:15:09;;;;;;;11.77;2.67;;;9.40;99.90;;;;;;6156249;23;20052;-82
2022/12/29 10:17:48;;;;;;;14.40;2.88;;;9.50;99.90;;;;;;6178000;23;20330;-83
2022/12/29 10:20:44;;;;;;;10.63;2.70;;;10.80;99.90;;;;;;6183868;23;20438;-82
2022/12/29 10:23:36;;;;;;;9.88;2.17;;;9.60;99.90;;;;;;6155999;23;20021;-82
2022/12/29 10:26:03;;;;;;;13.43;3.10;;;9.70;99.90;;;;;;6184406;23;20040;-83
2022/12/29 10:28:41;;;;;;;11.57;2.20;;;9.70;99.90;;;;;;6157498;23;20052;-82
2022/12/29 10:31:22;;;;;;;10.88;2.22;;;9.70;99.90;;;;;;6184067;23;20017;-82
2022/12/29 10:34:00;;;;;;;8.88;2.20;;;9.70;99.90;;;;;;6185112;23;20021;-82
2022/12/29 10:36:38;;;;;;;11.98;3.15;;;9.90;99.90;;;;;;6184780;23;20044;-82
2022/12/29 10:39:21;;;;;;;10.73;2.33;;;11.30;99.90;;;;;;6186744;23;20067;-82
2022/12/29 10:42:10;;;;;;;8.83;2.07;;;9.70;99.90;;;;;;6160298;23;20342;-82
2022/12/29 10:44:35;;;;;;;10.30;2.00;;;10.90;99.90;;;;;;6157920;23;20017;-82
2022/12/29 10:47:11;;;;;;;11.63;2.50;;;9.70;99.90;;;;;;6160106;23;20021;-82
2022/12/29 10:49:42;;;;;;;11.02;2.70;;;9.70;99.90;;;;;;6159572;23;20468;-83
2022/12/29 10:52:18;;;;;;;12.27;2.40;;;10.20;99.90;;;;;;6186024;23;20024;-82
2022/12/29 10:55:07;;;;;;;12.30;2.53;;;9.50;99.90;;;;;;6158272;23;20013;-84
2022/12/29 10:57:52;;;;;;;12.57;2.22;;;9.40;99.90;;;;;;6157319;23;20023;-83
2022/12/29 11:00:22;;;;;;;10.93;2.47;;;10.90;99.90;;;;;;6184597;23;20017;-83
2022/12/29 11:03:27;;;;;;;11.37;2.20;;;9.40;99.90;;;;;;6158449;23;20051;-84
2022/12/29 11:06:25;;;;;;;9.32;2.15;;;9.40;99.90;;;;;;6158085;23;20020;-83
2022/12/29 11:08:54;;;;;;;11.90;2.07;;;10.40;99.90;;;;;;6185604;23;20013;-83
2022/12/29 11:11:32;;;;;;;9.40;2.47;;;11.00;99.90;;;;;;6156556;23;20021;-83
2022/12/29 11:14:30;;;;;;;11.47;2.63;;;10.40;99.90;;;;;;6159354;23;20005;-84
2022/12/29 11:17:01;;;;;;;12.30;2.47;;;9.10;99.90;;;;;;6152458;23;20021;-83
2022/12/29 11:19:30;;;;;;;10.80;2.42;;;10.50;99.90;;;;;;6153402;23;20462;-83
2022/12/29 11:22:33;;;;;;;10.95;2.45;;;10.30;99.90;;;;;;6154126;23;20438;-83
2022/12/29 11:25:10;;;;;;;12.18;2.85;;;8.50;99.90;;;;;;6154404;23;20025;-84
2022/12/29 11:28:09;;;;;;;8.53;2.20;;;8.90;99.90;;;;;;6154414;23;20020;-83
2022/12/29 11:31:00;;;;;;;12.75;2.58;;;10.30;99.90;;;;;;6154595;23;20022;-83
2022/12/29 11:33:30;;;;;;;10.17;2.47;;;8.80;99.90;;;;;;6155377;23;20068;-84
2022/12/29 11:36:14;;;;;;;12.23;2.80;;;10.30;99.90;;;;;;6154612;23;20016;-84
2022/12/29 11:39:07;;;;;;;10.23;2.40;;;10.20;99.90;;;;;;6154597;23;20053;-84
2022/12/29 11:41:32;;;;;;;10.13;2.45;;;10.10;99.90;;;;;;6153385;23;20020;-83
2022/12/29 11:44:12;;;;;;;13.13;3.08;;;8.40;99.90;;;;;;6156242;23;20017;-83
2022/12/29 11:46:38;;;;;;;12.53;3.03;;;10.50;99.90;;;;;;6155791;23;20112;-83
2022/12/29 11:49:04;;;;;;;13.38;2.72;;;10.30;99.90;;;;;;6154547;23;20045;-83
2022/12/29 11:51:46;;;;;;;10.88;2.97;;;8.80;99.90;;;;;;6152527;23;20036;-83
2022/12/29 11:54:21;;;;;;;9.87;2.30;;;8.90;99.90;;;;;;6153336;23;20056;-84
2022/12/29 11:56:48;;;;;;;12.03;3.70;;;10.00;99.90;;;;;;6156580;23;20024;-84
2022/12/29 11:59:34;;;;;;;15.73;4.63;;;9.80;99.90;;;;;;6155442;23;20013;-85
2022/12/29 12:02:21;;;;;;;17.65;8.60;;;8.70;99.90;;;;;;6155408;23;20021;-85
2022/12/29 12:05:02;;;;;;;27.17;15.27;;;8.80;99.90;;;;;;6158920;23;20013;-85
2022/12/29 12:08:09;;;;;;;25.07;11.50;;;10.10;99.90;;;;;;6155322;23;20032;-83
2022/12/29 12:11:15;;;;;;;13.17;4.10;;;9.10;99.90;;;;;;6061985;23;20022;-84
2022/12/29 12:13:52;;;;;;;15.70;6.07;;;9.10;99.90;;;;;;5980946;24;20341;-84
2022/12/29 12:16:41;;;;;;;11.40;2.97;;;10.80;99.90;;;;;;5951959;23;20458;-85
2022/12/29 12:19:36;;;;;;;11.85;3.30;;;10.70;99.90;;;;;;5952382;24;20071;-84
2022/12/29 12:22:17;;;;;;;;;;;9.30;99.90;;;;;;6017639;23;20016;-84
2022/12/29 12:25:20;;;;;;;8.40;2.27;;;9.60;99.90;;;;;;6052069;23;19932;-84
2022/12/29 12:28:00;;;;;;;10.55;2.88;;;9.40;99.90;;;;;;6100677;23;20093;-85
2022/12/29 12:30:33;;;;;;;12.93;2.90;;;9.60;99.90;;;;;;6124901;23;20032;-84
2022/12/29 12:33:02;;;;;;;10.90;2.90;;;11.40;99.90;;;;;;6101124;23;20324;-82
2022/12/29 12:36:07;;;;;;;11.52;3.47;;;11.30;99.90;;;;;;6099924;23;20022;-83
2022/12/29 12:39:18;;;;;;;12.07;2.75;;;11.00;99.90;;;;;;6082258;23;20025;-83
2022/12/29 12:42:02;;;;;;;15.93;4.57;;;9.50;99.90;;;;;;6101113;23;20018;-83
2022/12/29 12:44:54;;;;;;;14.82;4.43;;;11.10;99.90;;;;;;6124788;23;20029;-83
2022/12/29 12:48:07;;;;;;;14.50;2.97;;;10.60;99.90;;;;;;6125887;23;20018;-83
2022/12/29 12:51:02;;;;;;;11.73;3.60;;;9.20;99.90;;;;;;6125173;23;20036;-83
2022/12/29 12:54:02;;;;;;;14.15;3.80;;;9.30;99.90;;;;;;6099027;23;20033;-82
2022/12/29 12:56:40;;;;;;;16.58;6.25;;;8.60;99.90;;;;;;6099578;23;20026;-83
2022/12/29 12:59:49;;;;;;;14.63;3.30;;;9.40;99.90;;;;;;6099697;23;20014;-83
2022/12/29 13:02:36;;;;;;;16.25;3.58;;;9.30;99.90;;;;;;6099544;23;20526;-83
2022/12/29 13:05:53;;;;;;;15.20;3.65;;;9.40;99.90;;;;;;6125098;23;20544;-83
2022/12/29 13:09:08;;;;;;;14.02;3.55;;;9.50;99.90;;;;;;6104662;23;20021;-83
2022/12/29 13:12:29;;;;;;;14.00;3.45;;;9.30;99.90;;;;;;6092840;23;20014;-83
2022/12/29 13:14:57;;;;;;;17.27;3.10;;;9.30;99.90;;;;;;6012856;23;20019;-83
2022/12/29 13:17:49;;;;;;;12.75;3.03;;;10.40;99.90;;;;;;6108177;23;20426;-83
2022/12/29 13:20:39;;;;;;;13.95;3.10;;;9.40;99.90;;;;;;6099310;23;20022;-83
2022/12/29 13:23:57;;;;;;;14.40;3.45;;;10.50;99.90;;;;;;6099770;23;20029;-83
2022/12/29 13:27:03;;;;;;;15.05;3.10;;;9.30;99.90;;;;;;6098694;23;20093;-83
2022/12/29 13:29:50;;;;;;;13.87;3.20;;;9.20;99.90;;;;;;6125253;23;20404;-83
2022/12/29 13:32:55;;;;;;;14.33;3.30;;;9.20;99.90;;;;;;6098668;23;20018;-83
2022/12/29 13:35:47;;;;;;;;;;;9.80;99.90;;;;;;6125661;23;20024;-83
2022/12/29 13:38:37;;;;;;;12.10;2.85;;;9.10;99.90;;;;;;6099314;23;19923;-84
2022/12/29 13:41:45;;;;;;;15.20;3.13;;;9.30;99.90;;;;;;6124614;23;20029;-83
2022/12/29 13:44:45;;;;;;;13.10;2.83;;;9.30;99.90;;;;;;6125769;23;20029;-83
2022/12/29 13:47:57;;;;;;;13.40;3.40;;;9.60;99.90;;;;;;6103678;23;20025;-83
2022/12/29 13:50:45;;;;;;;17.07;5.90;;;9.30;99.90;;;;;;6099120;23;20021;-83
2022/12/29 13:53:34;;;;;;;21.43;9.33;;;8.70;99.90;;;;;;6124855;23;20025;-83
2022/12/29 13:56:44;;;;;;;16.43;7.13;;;10.70;99.90;;;;;;6099642;23;20022;-83
2022/12/29 13:59:15;;;;;;;17.67;5.77;;;8.50;99.90;;;;;;6098835;23;20018;-83
2022/12/29 14:02:27;;;;;;;17.83;5.80;;;8.90;99.90;;;;;;6098758;23;20014;-83
2022/12/29 14:05:37;;;;;;;20.67;8.23;;;9.00;99.90;;;;;;6035764;23;20094;-83
2022/12/29 14:08:33;;;;;;;15.17;3.97;;;8.20;99.90;;;;;;6095218;23;20052;-83
2022/12/29 14:11:42;;;;;;;26.27;12.67;;;9.20;99.90;;;;;;6126665;23;20022;-83
2022/12/29 14:14:23;;;;;;;14.60;3.97;;;8.80;99.90;;;;;;6007834;23;20020;-83
2022/12/29 14:16:50;;;;;;;12.90;3.27;;;8.40;99.90;;;;;;6014239;23;20018;-83
2022/12/29 14:19:43;;;;;;;18.37;4.87;;;8.90;99.90;;;;;;6120945;23;20036;-82
2022/12/29 14:22:28;;;;;;;16.20;5.00;;;8.50;99.90;;;;;;6155972;23;20016;-81
2022/12/29 14:25:01;;;;;;;21.40;7.97;;;9.90;99.90;;;;;;6131708;23;20485;-83
2022/12/29 14:27:27;;;;;;;16.77;6.78;;;9.00;99.90;;;;;;6129910;23;20017;-83